Time;durP1;ratioP1;P1;durP2;ratioP2;P2;SDS_P1;SDS_P2;PMS_P1;PMS_P2;Temp;Humidity;BMP_temperature;BMP_pressure;BME280_temperature;BME280_humidity;BME280_pressure;Samples;Min_cycle;Max_cycle;Signal;HPM_P1;HPM_P2
2022/04/08 00:04:53;;;;;;;2.70;2.03;;;;;;;;;;10319074;28;20030;-73
2022/04/08 00:09:53;;;;;;;4.63;3.07;;;;;;;;;;10319483;28;20034;-70
2022/04/08 00:14:53;;;;;;;5.88;2.92;;;;;;;;;;10320805;28;20026;-74
2022/04/08 00:19:54;;;;;;;2.37;2.10;;;;;;;;;;10317316;28;20033;-70
2022/04/08 00:24:54;;;;;;;2.92;2.22;;;;;;;;;;10301140;28;20022;-74
2022/04/08 00:29:54;;;;;;;4.03;1.87;;;;;;;;;;10317570;28;20180;-72
2022/04/08 00:34:54;;;;;;;2.95;2.47;;;;;;;;;;10317507;28;20156;-70
2022/04/08 00:39:55;;;;;;;4.38;2.53;;;;;;;;;;10316757;28;20497;-69
2022/04/08 00:44:55;;;;;;;3.93;2.00;;;;;;;;;;10301073;28;20031;-70
2022/04/08 00:49:55;;;;;;;2.60;2.40;;;;;;;;;;10300927;28;20493;-69
2022/04/08 00:54:56;;;;;;;3.05;2.70;;;;;;;;;;10317805;28;20038;-71
2022/04/08 00:59:56;;;;;;;2.00;1.77;;;;;;;;;;10317277;28;20034;-70
2022/04/08 01:04:57;;;;;;;3.30;2.35;;;;;;;;;;10316570;28;20022;-71
2022/04/08 01:09:57;;;;;;;2.28;2.08;;;;;;;;;;10300149;28;20023;-71
2022/04/08 01:14:58;;;;;;;2.50;2.30;;;;;;;;;;10316330;28;20475;-75
2022/04/08 01:19:59;;;;;;;2.08;1.88;;;;;;;;;;10316277;28;20056;-71
2022/04/08 01:25:03;;;;;;;2.43;1.80;;;;;;;;;;10315635;28;20028;-70
2022/04/08 01:30:04;;;;;;;3.10;1.95;;;;;;;;;;10323485;28;20351;-69
2022/04/08 01:35:05;;;;;;;2.45;2.00;;;;;;;;;;10323108;28;20543;-71
2022/04/08 01:40:05;;;;;;;4.28;2.30;;;;;;;;;;10306244;28;20050;-69
2022/04/08 01:45:08;;;;;;;2.72;2.05;;;;;;;;;;10322613;28;20022;-71
2022/04/08 01:50:08;;;;;;;2.03;1.80;;;;;;;;;;10322716;28;20034;-70
2022/04/08 01:55:08;;;;;;;2.35;1.70;;;;;;;;;;10322014;28;20557;-71
2022/04/08 02:00:09;;;;;;;5.53;2.28;;;;;;;;;;10322689;28;20137;-71
2022/04/08 02:05:09;;;;;;;2.05;1.83;;;;;;;;;;10322170;28;20067;-70
2022/04/08 02:10:10;;;;;;;1.65;1.55;;;;;;;;;;10321394;28;20122;-70
2022/04/08 02:15:10;;;;;;;2.70;1.55;;;;;;;;;;10321517;28;20038;-71
2022/04/08 02:20:11;;;;;;;2.50;1.83;;;;;;;;;;10321591;28;20091;-70
2022/04/08 02:25:11;;;;;;;3.10;1.97;;;;;;;;;;10321359;28;20159;-69
2022/04/08 02:30:14;;;;;;;3.08;2.17;;;;;;;;;;10321288;28;20413;-70
2022/04/08 02:35:15;;;;;;;3.25;1.80;;;;;;;;;;10322524;28;20048;-72
2022/04/08 02:40:15;;;;;;;2.63;1.80;;;;;;;;;;10320090;28;20042;-69
2022/04/08 02:45:16;;;;;;;4.28;1.80;;;;;;;;;;10321858;28;20026;-73
2022/04/08 02:50:16;;;;;;;3.90;2.55;;;;;;;;;;10320743;28;20022;-70
2022/04/08 02:55:16;;;;;;;5.97;2.95;;;;;;;;;;10320329;28;20457;-70
2022/04/08 03:00:18;;;;;;;5.90;3.80;;;;;;;;;;10321241;28;20409;-70
2022/04/08 03:05:18;;;;;;;8.60;4.78;;;;;;;;;;10304023;28;20054;-70
2022/04/08 03:10:19;;;;;;;9.43;4.10;;;;;;;;;;10320692;28;20154;-71
2022/04/08 03:15:19;;;;;;;7.18;3.90;;;;;;;;;;10304159;28;20025;-69
2022/04/08 03:20:19;;;;;;;9.60;4.30;;;;;;;;;;10319436;28;20451;-71
2022/04/08 03:25:20;;;;;;;11.07;5.17;;;;;;;;;;10319336;28;20433;-70
2022/04/08 03:30:20;;;;;;;6.95;3.72;;;;;;;;;;10318991;28;20022;-69
2022/04/08 03:35:21;;;;;;;7.00;3.47;;;;;;;;;;10319000;28;20028;-71
2022/04/08 03:40:21;;;;;;;11.65;4.90;;;;;;;;;;10318652;28;20537;-69
2022/04/08 03:45:22;;;;;;;7.65;5.00;;;;;;;;;;10318503;28;20040;-70
2022/04/08 03:50:22;;;;;;;9.23;5.43;;;;;;;;;;10318880;28;20030;-71
2022/04/08 03:55:23;;;;;;;11.07;4.83;;;;;;;;;;10318920;28;20094;-72
2022/04/08 04:00:23;;;;;;;7.10;5.27;;;;;;;;;;10318196;28;20470;-73
2022/04/08 04:05:23;;;;;;;8.57;6.20;;;;;;;;;;10317996;28;20018;-72
2022/04/08 04:10:23;;;;;;;9.02;5.78;;;;;;;;;;10317987;28;20382;-74
2022/04/08 04:15:24;;;;;;;13.65;6.45;;;;;;;;;;10317825;28;20041;-73
2022/04/08 04:20:24;;;;;;;9.80;6.45;;;;;;;;;;10317547;28;20512;-72
2022/04/08 04:25:25;;;;;;;10.02;5.78;;;;;;;;;;10329330;28;20018;-72
2022/04/08 04:30:27;;;;;;;11.98;5.68;;;;;;;;;;10353469;28;20528;-73
2022/04/08 04:35:27;;;;;;;8.65;5.63;;;;;;;;;;10316350;28;20103;-71
2022/04/08 04:40:28;;;;;;;9.88;5.03;;;;;;;;;;10316920;28;20172;-71
2022/04/08 04:45:29;;;;;;;10.30;7.10;;;;;;;;;;10356568;28;20421;-73
2022/04/08 04:50:29;;;;;;;13.07;7.05;;;;;;;;;;10318013;28;20492;-71
2022/04/08 04:55:29;;;;;;;16.23;7.17;;;;;;;;;;10348521;28;20030;-73
2022/04/08 05:00:30;;;;;;;11.07;7.13;;;;;;;;;;10358024;28;20357;-71
2022/04/08 05:05:30;;;;;;;9.43;5.97;;;;;;;;;;10364104;28;20617;-73
2022/04/08 05:10:31;;;;;;;10.68;6.05;;;;;;;;;;10341907;28;20029;-73
2022/04/08 05:15:37;;;;;;;12.90;5.40;;;;;;;;;;10363161;28;20022;-72
2022/04/08 05:20:38;;;;;;;9.40;5.03;;;;;;;;;;10352752;28;20037;-71
2022/04/08 05:25:38;;;;;;;8.60;4.85;;;;;;;;;;10322630;28;20028;-72
2022/04/08 05:30:39;;;;;;;11.83;3.73;;;;;;;;;;10323025;28;20030;-74
2022/04/08 05:35:39;;;;;;;6.68;4.22;;;;;;;;;;10323478;28;20349;-72
2022/04/08 05:40:40;;;;;;;8.40;4.20;;;;;;;;;;10323090;28;20057;-75
2022/04/08 05:45:40;;;;;;;3.67;2.72;;;;;;;;;;10322779;28;20118;-72
2022/04/08 05:50:41;;;;;;;4.77;2.97;;;;;;;;;;10321391;28;20022;-71
2022/04/08 05:55:41;;;;;;;5.32;2.30;;;;;;;;;;10322653;28;20788;-72
2022/04/08 06:00:41;;;;;;;5.40;3.03;;;;;;;;;;10322812;28;20034;-73
2022/04/08 06:05:42;;;;;;;7.60;2.60;;;;;;;;;;10322317;28;20030;-71
2022/04/08 06:10:42;;;;;;;10.63;3.10;;;;;;;;;;10321516;28;20053;-72
2022/04/08 06:15:42;;;;;;;3.85;2.47;;;;;;;;;;10320351;28;20062;-71
2022/04/08 06:20:42;;;;;;;4.22;2.80;;;;;;;;;;10322357;28;20045;-71
2022/04/08 06:25:43;;;;;;;7.47;2.90;;;;;;;;;;10320890;28;20034;-71
2022/04/08 06:30:43;;;;;;;11.48;3.40;;;;;;;;;;10321480;28;20037;-73
2022/04/08 06:35:43;;;;;;;5.47;2.55;;;;;;;;;;10322086;28;20113;-71
2022/04/08 06:40:44;;;;;;;4.03;2.40;;;;;;;;;;10319581;28;20055;-73
2022/04/08 06:45:44;;;;;;;5.50;2.20;;;;;;;;;;10322146;28;20026;-74
2022/04/08 06:50:45;;;;;;;4.63;2.45;;;;;;;;;;10321878;28;20768;-76
2022/04/08 06:55:45;;;;;;;6.40;2.58;;;;;;;;;;10323214;28;20026;-76
2022/04/08 07:00:45;;;;;;;5.17;2.50;;;;;;;;;;10321394;28;20084;-71
2022/04/08 07:05:46;;;;;;;5.93;1.87;;;;;;;;;;10321084;28;20117;-73
2022/04/08 07:10:46;;;;;;;6.70;2.40;;;;;;;;;;10320470;28;20026;-70
2022/04/08 07:15:46;;;;;;;6.15;2.45;;;;;;;;;;10319363;28;20278;-78
2022/04/08 07:20:47;;;;;;;9.38;3.13;;;;;;;;;;10319286;28;20027;-73
2022/04/08 07:25:47;;;;;;;7.07;1.20;;;;;;;;;;10320301;28;20141;-72
2022/04/08 07:30:49;;;;;;;4.60;1.95;;;;;;;;;;10318671;28;20022;-77
2022/04/08 07:35:50;;;;;;;1.92;1.10;;;;;;;;;;10319110;28;20033;-72
2022/04/08 07:40:50;;;;;;;6.32;1.00;;;;;;;;;;10318538;28;20062;-73
2022/04/08 07:45:50;;;;;;;6.60;1.30;;;;;;;;;;10318150;28;20105;-72
2022/04/08 07:50:51;;;;;;;1.63;0.80;;;;;;;;;;10318608;28;20469;-72
2022/04/08 07:55:51;;;;;;;2.60;1.30;;;;;;;;;;10318315;28;20030;-72
2022/04/08 08:00:53;;;;;;;4.17;1.30;;;;;;;;;;10317635;28;20026;-72
2022/04/08 08:05:53;;;;;;;5.78;1.30;;;;;;;;;;10301998;28;20042;-72
2022/04/08 08:10:55;;;;;;;5.23;1.20;;;;;;;;;;10317778;28;20073;-71
2022/04/08 08:15:56;;;;;;;2.35;1.45;;;;;;;;;;10317330;28;20106;-70
2022/04/08 08:20:56;;;;;;;6.72;1.30;;;;;;;;;;10319044;28;20357;-78
2022/04/08 08:25:56;;;;;;;12.45;1.90;;;;;;;;;;10317189;28;20022;-72
2022/04/08 08:30:56;;;;;;;4.27;1.30;;;;;;;;;;10318410;28;20095;-72
2022/04/08 08:35:57;;;;;;;5.78;0.98;;;;;;;;;;10317687;28;20388;-72
2022/04/08 08:40:57;;;;;;;2.97;1.15;;;;;;;;;;10318162;28;20062;-72
2022/04/08 08:46:01;;;;;;;4.00;1.00;;;;;;;;;;10316615;28;20023;-73
2022/04/08 08:51:03;;;;;;;1.55;1.00;;;;;;;;;;10316661;28;20037;-71
2022/04/08 08:56:05;;;;;;;1.13;0.90;;;;;;;;;;10317809;28;20335;-72
2022/04/08 09:01:08;;;;;;;3.70;0.73;;;;;;;;;;10316268;28;20030;-74
2022/04/08 09:06:09;;;;;;;2.40;0.98;;;;;;;;;;10316158;28;20080;-74
2022/04/08 09:11:09;;;;;;;3.90;1.05;;;;;;;;;;10316057;28;20034;-72
2022/04/08 09:16:10;;;;;;;2.17;0.83;;;;;;;;;;10316372;28;20118;-73
2022/04/08 09:21:20;;;;;;;3.00;1.47;;;;;;;;;;10315714;28;20034;-78
2022/04/08 09:26:20;;;;;;;1.38;1.10;;;;;;;;;;10315461;28;20015;-71
2022/04/08 09:31:21;;;;;;;4.35;1.25;;;;;;;;;;10316286;28;20052;-73
2022/04/08 09:36:25;;;;;;;3.80;1.20;;;;;;;;;;10316513;28;20030;-72
2022/04/08 09:41:39;;;;;;;2.83;1.10;;;;;;;;;;10315082;28;20075;-75
2022/04/08 09:46:40;;;;;;;1.58;0.98;;;;;;;;;;10315574;28;20557;-70
2022/04/08 09:51:40;;;;;;;4.68;1.25;;;;;;;;;;10321948;28;20032;-71
2022/04/08 09:56:43;;;;;;;1.42;1.02;;;;;;;;;;10321638;28;20037;-72
2022/04/08 10:01:43;;;;;;;4.38;1.25;;;;;;;;;;10321849;28;20038;-73
2022/04/08 10:06:44;;;;;;;5.07;1.30;;;;;;;;;;10322844;28;20436;-71
2022/04/08 10:11:47;;;;;;;4.25;1.00;;;;;;;;;;10320870;28;20035;-73
2022/04/08 10:16:51;;;;;;;3.58;1.20;;;;;;;;;;10322395;28;20037;-72
2022/04/08 10:21:53;;;;;;;5.07;1.08;;;;;;;;;;10321985;28;20030;-72
2022/04/08 10:27:08;;;;;;;2.45;0.80;;;;;;;;;;10304736;28;20480;-71
2022/04/08 10:32:14;;;;;;;1.10;0.60;;;;;;;;;;10304891;28;20117;-73
2022/04/08 10:37:24;;;;;;;1.02;0.70;;;;;;;;;;10320386;28;20402;-71
2022/04/08 10:42:24;;;;;;;3.30;1.42;;;;;;;;;;10320334;28;20034;-75
2022/04/08 10:47:24;;;;;;;16.98;7.43;;;;;;;;;;10321098;28;20398;-71
2022/04/08 10:52:26;;;;;;;19.17;7.23;;;;;;;;;;10321676;28;20026;-72
2022/04/08 10:57:46;;;;;;;2.08;0.82;;;;;;;;;;10320152;28;20018;-75
2022/04/08 11:02:47;;;;;;;3.97;0.65;;;;;;;;;;10318910;28;20034;-71
2022/04/08 11:07:48;;;;;;;2.53;0.80;;;;;;;;;;10319608;28;20018;-78
2022/04/08 11:12:53;;;;;;;1.58;0.82;;;;;;;;;;10319338;28;20500;-69
2022/04/08 11:17:53;;;;;;;7.80;1.45;;;;;;;;;;10320189;28;20023;-78
2022/04/08 11:22:54;;;;;;;2.92;0.95;;;;;;;;;;10320321;28;20025;-72
2022/04/08 11:27:57;;;;;;;1.33;0.80;;;;;;;;;;10318993;28;20030;-75
2022/04/08 11:32:58;;;;;;;4.72;1.20;;;;;;;;;;10318512;28;20148;-72
2022/04/08 11:37:58;;;;;;;2.90;1.52;;;;;;;;;;10318571;28;20050;-71
2022/04/08 11:42:59;;;;;;;1.03;0.70;;;;;;;;;;10318985;28;20037;-71
2022/04/08 11:47:59;;;;;;;1.58;0.70;;;;;;;;;;10318358;28;20030;-72
2022/04/08 11:53:00;;;;;;;1.00;0.80;;;;;;;;;;10318854;28;20022;-72
2022/04/08 11:58:00;;;;;;;4.13;0.73;;;;;;;;;;10319756;28;20034;-75
2022/04/08 12:03:00;;;;;;;8.48;1.17;;;;;;;;;;10318111;28;20022;-80
2022/04/08 12:08:00;;;;;;;4.53;1.03;;;;;;;;;;10317907;28;20030;-73
2022/04/08 12:13:11;;;;;;;2.67;1.70;;;;;;;;;;10317131;28;20022;-71
2022/04/08 12:18:11;;;;;;;3.00;1.17;;;;;;;;;;10317379;28;20026;-72
2022/04/08 12:23:13;;;;;;;3.38;0.98;;;;;;;;;;10302519;28;20469;-72
2022/04/08 12:28:13;;;;;;;1.33;0.85;;;;;;;;;;10320243;28;20026;-77
2022/04/08 12:33:14;;;;;;;1.05;0.60;;;;;;;;;;10318010;28;20023;-71
2022/04/08 12:38:19;;;;;;;2.80;0.80;;;;;;;;;;10317404;28;20087;-72
2022/04/08 12:43:21;;;;;;;2.50;1.20;;;;;;;;;;10316468;28;20829;-71
2022/04/08 12:48:21;;;;;;;4.05;1.50;;;;;;;;;;10317800;28;20026;-75
2022/04/08 12:53:21;;;;;;;2.93;1.50;;;;;;;;;;10317566;28;20014;-72
2022/04/08 12:58:22;;;;;;;8.00;1.45;;;;;;;;;;10316689;28;20095;-73
2022/04/08 13:03:22;;;;;;;2.22;1.30;;;;;;;;;;10339154;28;20018;-75
2022/04/08 13:08:24;;;;;;;4.13;1.00;;;;;;;;;;10325829;28;20030;-71
2022/04/08 13:13:24;;;;;;;5.47;1.10;;;;;;;;;;10345405;28;20482;-72
2022/04/08 13:18:25;;;;;;;3.40;1.10;;;;;;;;;;10323710;28;20026;-72
2022/04/08 13:23:25;;;;;;;7.00;1.30;;;;;;;;;;10349197;28;20113;-73
2022/04/08 13:28:25;;;;;;;2.37;1.30;;;;;;;;;;10363088;28;20026;-71
2022/04/08 13:33:26;;;;;;;4.43;1.43;;;;;;;;;;10363278;28;20117;-70
2022/04/08 13:38:26;;;;;;;1.67;0.90;;;;;;;;;;10335938;28;20133;-74
2022/04/08 13:43:27;;;;;;;6.05;1.60;;;;;;;;;;10323225;28;20042;-71
2022/04/08 13:48:27;;;;;;;1.27;0.87;;;;;;;;;;10322085;28;20018;-70
2022/04/08 13:53:27;;;;;;;1.60;1.02;;;;;;;;;;10322718;28;20046;-71
2022/04/08 13:58:27;;;;;;;16.02;1.67;;;;;;;;;;10322920;28;20027;-70
2022/04/08 14:03:28;;;;;;;5.80;1.10;;;;;;;;;;10321203;28;20019;-75
2022/04/08 14:08:28;;;;;;;4.83;1.90;;;;;;;;;;10321311;28;20105;-71
2022/04/08 14:13:28;;;;;;;1.45;0.85;;;;;;;;;;10322288;28;20117;-72
2022/04/08 14:18:29;;;;;;;3.67;1.20;;;;;;;;;;10360914;28;20022;-77
2022/04/08 14:23:31;;;;;;;2.88;0.82;;;;;;;;;;10361057;28;20018;-72
2022/04/08 14:28:32;;;;;;;8.07;3.95;;;;;;;;;;10333019;28;20038;-77
2022/04/08 14:33:36;;;;;;;2.35;0.90;;;;;;;;;;10319538;28;20026;-73
2022/04/08 14:38:36;;;;;;;7.85;1.63;;;;;;;;;;10320323;28;20054;-72
2022/04/08 14:43:37;;;;;;;1.93;1.10;;;;;;;;;;10320292;28;20033;-77
2022/04/08 14:48:37;;;;;;;8.63;1.17;;;;;;;;;;10320525;28;20265;-72
2022/04/08 14:53:37;;;;;;;7.50;3.42;;;;;;;;;;10356331;28;20065;-73
2022/04/08 14:58:37;;;;;;;2.90;1.35;;;;;;;;;;10360795;28;20026;-71
2022/04/08 15:03:38;;;;;;;10.10;3.28;;;;;;;;;;10331007;28;20025;-71
2022/04/08 15:08:39;;;;;;;3.60;1.40;;;;;;;;;;10320470;28;20034;-76
2022/04/08 15:13:40;;;;;;;3.95;1.40;;;;;;;;;;10321039;28;20063;-78
2022/04/08 15:18:40;;;;;;;6.18;3.55;;;;;;;;;;10319443;28;20039;-72
2022/04/08 15:23:40;;;;;;;2.97;1.55;;;;;;;;;;10319643;28;20102;-71
2022/04/08 15:28:42;;;;;;;2.10;1.10;;;;;;;;;;10321313;28;20030;-74
2022/04/08 15:33:43;;;;;;;9.98;4.15;;;;;;;;;;10319870;28;20065;-71
2022/04/08 15:38:44;;;;;;;3.35;1.88;;;;;;;;;;10332114;28;20062;-74
2022/04/08 15:43:44;;;;;;;4.15;1.23;;;;;;;;;;10360075;28;20537;-72
2022/04/08 15:48:47;;;;;;;4.78;2.15;;;;;;;;;;10357312;28;20031;-73
2022/04/08 15:53:47;;;;;;;5.47;1.88;;;;;;;;;;10359764;28;20542;-73
2022/04/08 15:58:48;;;;;;;5.85;1.90;;;;;;;;;;10326703;28;20026;-76
2022/04/08 16:03:48;;;;;;;1.80;1.17;;;;;;;;;;10319367;28;20536;-71
2022/04/08 16:08:48;;;;;;;2.70;1.70;;;;;;;;;;10321665;28;20022;-73
2022/04/08 16:13:49;;;;;;;2.15;1.40;;;;;;;;;;10325653;28;20026;-72
2022/04/08 16:18:49;;;;;;;4.40;1.65;;;;;;;;;;10357754;28;20083;-74
2022/04/08 16:23:50;;;;;;;2.90;1.60;;;;;;;;;;10335129;28;20023;-74
2022/04/08 16:28:50;;;;;;;3.77;2.23;;;;;;;;;;10318214;28;20026;-73
2022/04/08 16:33:50;;;;;;;2.03;0.97;;;;;;;;;;10328292;28;20108;-72
2022/04/08 16:38:51;;;;;;;3.40;0.97;;;;;;;;;;10357696;28;20052;-70
2022/04/08 16:43:51;;;;;;;5.40;1.75;;;;;;;;;;10358907;28;20040;-72
2022/04/08 16:48:51;;;;;;;4.43;2.50;;;;;;;;;;10323584;28;20440;-72
2022/04/08 16:53:52;;;;;;;3.60;1.43;;;;;;;;;;10323086;28;20050;-75
2022/04/08 16:58:52;;;;;;;8.10;2.80;;;;;;;;;;10321642;28;20155;-74
2022/04/08 17:03:53;;;;;;;12.02;5.03;;;;;;;;;;10324227;28;20109;-72
2022/04/08 17:08:54;;;;;;;10.00;3.30;;;;;;;;;;10327119;28;20404;-72
2022/04/08 17:13:54;;;;;;;4.17;1.43;;;;;;;;;;10324756;28;20630;-72
2022/04/08 17:18:54;;;;;;;1.50;0.70;;;;;;;;;;10323048;28;20027;-70
2022/04/08 17:23:58;;;;;;;1.75;1.05;;;;;;;;;;10306536;28;20110;-73
2022/04/08 17:28:58;;;;;;;9.75;2.63;;;;;;;;;;10323034;28;20022;-71
2022/04/08 17:34:01;;;;;;;5.17;2.13;;;;;;;;;;10328061;28;20409;-75
2022/04/08 17:39:03;;;;;;;3.58;2.00;;;;;;;;;;10321442;28;20091;-71
2022/04/08 17:44:04;;;;;;;9.90;4.53;;;;;;;;;;10306476;28;20045;-71
2022/04/08 17:49:05;;;;;;;8.70;4.40;;;;;;;;;;10332707;28;20026;-73
2022/04/08 17:54:05;;;;;;;3.40;2.00;;;;;;;;;;10362123;28;20038;-70
2022/04/08 17:59:08;;;;;;;4.25;1.23;;;;;;;;;;10363360;28;20033;-70
2022/04/08 18:04:09;;;;;;;2.97;1.85;;;;;;;;;;10362005;28;20026;-71
2022/04/08 18:09:10;;;;;;;7.57;3.97;;;;;;;;;;10360748;28;20026;-70
2022/04/08 18:14:10;;;;;;;3.45;1.40;;;;;;;;;;10363168;28;20026;-70
2022/04/08 18:19:10;;;;;;;3.87;1.57;;;;;;;;;;10349119;28;20074;-71
2022/04/08 18:24:11;;;;;;;7.43;3.25;;;;;;;;;;10335709;28;20397;-70
2022/04/08 18:29:11;;;;;;;3.35;1.27;;;;;;;;;;10353758;28;20133;-71
2022/04/08 18:34:11;;;;;;;14.43;7.23;;;;;;;;;;10320784;28;20037;-75
2022/04/08 18:39:12;;;;;;;6.33;3.20;;;;;;;;;;10320509;28;20115;-70
2022/04/08 18:44:13;;;;;;;15.93;4.97;;;;;;;;;;10321823;28;20523;-70
2022/04/08 18:49:13;;;;;;;2.55;1.40;;;;;;;;;;10321549;28;20037;-70
2022/04/08 18:54:13;;;;;;;3.50;2.05;;;;;;;;;;10326823;28;20079;-71
2022/04/08 18:59:14;;;;;;;2.40;1.40;;;;;;;;;;10303884;28;20018;-74
2022/04/08 19:04:14;;;;;;;5.38;2.97;;;;;;;;;;10357496;28;20022;-69
2022/04/08 19:09:14;;;;;;;2.77;1.17;;;;;;;;;;10360406;28;20030;-70
2022/04/08 19:14:15;;;;;;;2.45;0.63;;;;;;;;;;10324016;28;20823;-71
2022/04/08 19:19:15;;;;;;;5.78;2.10;;;;;;;;;;10336622;28;20354;-74
2022/04/08 19:24:15;;;;;;;6.63;2.60;;;;;;;;;;10361151;28;20074;-74
2022/04/08 19:34:22;;;;;;;7.43;2.15;;;;;;;;;;10530769;28;19920;-70
2022/04/08 19:39:22;;;;;;;4.07;2.00;;;;;;;;;;10513545;28;20024;-71
2022/04/08 19:44:22;;;;;;;9.03;4.07;;;;;;;;;;10531363;28;20020;-72
2022/04/08 19:49:22;;;;;;;4.45;2.80;;;;;;;;;;10490482;28;20021;-75
2022/04/08 19:54:23;;;;;;;9.60;3.00;;;;;;;;;;10487907;28;20546;-70
2022/04/08 19:59:23;;;;;;;6.95;3.47;;;;;;;;;;10470783;28;20078;-73
2022/04/08 20:04:23;;;;;;;8.52;3.85;;;;;;;;;;10520059;28;20027;-70
2022/04/08 20:09:24;;;;;;;15.03;4.27;;;;;;;;;;10512762;28;20048;-73
2022/04/08 20:14:24;;;;;;;13.32;7.95;;;;;;;;;;10530560;28;20035;-72
2022/04/08 20:19:24;;;;;;;13.68;4.35;;;;;;;;;;10512223;28;20035;-72
2022/04/08 20:24:26;;;;;;;10.27;5.03;;;;;;;;;;10512501;28;20020;-74
2022/04/08 20:29:26;;;;;;;10.25;4.68;;;;;;;;;;10511816;28;20381;-74
2022/04/08 20:34:27;;;;;;;9.93;4.83;;;;;;;;;;10487111;28;20038;-71
2022/04/08 20:39:27;;;;;;;14.10;4.28;;;;;;;;;;10470031;28;20024;-71
2022/04/08 20:44:28;;;;;;;8.13;4.27;;;;;;;;;;10470214;28;20028;-73
2022/04/08 20:49:28;;;;;;;8.23;4.15;;;;;;;;;;10469591;28;20028;-72
2022/04/08 20:54:29;;;;;;;10.27;3.50;;;;;;;;;;10469793;28;20032;-72
2022/04/08 20:59:29;;;;;;;8.93;3.85;;;;;;;;;;10469296;28;20037;-70
2022/04/08 21:04:30;;;;;;;7.83;3.23;;;;;;;;;;10467489;28;20024;-73
2022/04/08 21:09:30;;;;;;;4.68;3.30;;;;;;;;;;10488065;28;20098;-71
2022/04/08 21:14:31;;;;;;;7.77;3.60;;;;;;;;;;10487282;28;20474;-71
2022/04/08 21:19:31;;;;;;;10.23;3.58;;;;;;;;;;10469010;28;20036;-70
2022/04/08 21:24:31;;;;;;;7.67;4.40;;;;;;;;;;10469218;28;20112;-71
2022/04/08 21:29:32;;;;;;;8.10;4.13;;;;;;;;;;10487027;28;20458;-71
2022/04/08 21:34:32;;;;;;;8.02;4.05;;;;;;;;;;10468788;28;20543;-69
2022/04/08 21:39:32;;;;;;;9.13;4.30;;;;;;;;;;10468660;28;20029;-70
2022/04/08 21:44:33;;;;;;;10.05;3.58;;;;;;;;;;10473636;28;20561;-73
2022/04/08 21:49:33;;;;;;;7.10;3.13;;;;;;;;;;10494241;28;20023;-70
2022/04/08 21:54:34;;;;;;;10.17;4.27;;;;;;;;;;10475960;28;20031;-69
2022/04/08 21:59:34;;;;;;;10.30;4.22;;;;;;;;;;10476074;28;20021;-69
2022/04/08 22:04:34;;;;;;;7.40;3.67;;;;;;;;;;10493990;28;20423;-71
2022/04/08 22:09:35;;;;;;;7.40;2.63;;;;;;;;;;10475546;28;20047;-70
2022/04/08 22:14:35;;;;;;;7.20;3.10;;;;;;;;;;10493450;28;20036;-74
2022/04/08 22:19:35;;;;;;;4.15;2.92;;;;;;;;;;10475611;28;20040;-71
2022/04/08 22:24:37;;;;;;;7.90;2.38;;;;;;;;;;10475050;28;20089;-72
2022/04/08 22:29:38;;;;;;;7.90;5.40;;;;;;;;;;10492948;28;20479;-71
2022/04/08 22:34:38;;;;;;;2.90;2.08;;;;;;;;;;10474987;28;20111;-74
2022/04/08 22:39:38;;;;;;;3.63;1.95;;;;;;;;;;10474278;28;20362;-70
2022/04/08 22:44:38;;;;;;;4.65;2.25;;;;;;;;;;10474081;28;20016;-73
2022/04/08 22:49:39;;;;;;;5.00;1.70;;;;;;;;;;10457806;28;20035;-75
2022/04/08 22:54:39;;;;;;;6.20;1.75;;;;;;;;;;10473258;28;20522;-70
2022/04/08 22:59:42;;;;;;;2.97;1.20;;;;;;;;;;10446528;28;20032;-71
2022/04/08 23:04:44;;;;;;;1.77;1.35;;;;;;;;;;10449961;28;20407;-71
2022/04/08 23:09:44;;;;;;;3.90;1.60;;;;;;;;;;10450225;28;20183;-75
2022/04/08 23:14:44;;;;;;;7.33;1.80;;;;;;;;;;10449714;28;20543;-72
2022/04/08 23:19:44;;;;;;;3.00;2.03;;;;;;;;;;10449557;28;20607;-70
2022/04/08 23:24:45;;;;;;;4.17;2.00;;;;;;;;;;10449212;28;20468;-71
2022/04/08 23:29:45;;;;;;;3.17;1.90;;;;;;;;;;10430916;28;20048;-70
2022/04/08 23:34:46;;;;;;;2.15;1.85;;;;;;;;;;10431116;28;20405;-69
2022/04/08 23:39:48;;;;;;;4.97;1.67;;;;;;;;;;10430902;28;20032;-74
2022/04/08 23:44:48;;;;;;;2.95;1.45;;;;;;;;;;10448392;28;20484;-71
2022/04/08 23:49:49;;;;;;;4.10;1.48;;;;;;;;;;10448436;28;20033;-71
2022/04/08 23:54:49;;;;;;;3.92;1.50;;;;;;;;;;10448177;28;20086;-71
2022/04/08 23:59:49;;;;;;;3.67;1.63;;;;;;;;;;10430755;28;20044;-69
